createdAt,value
2019-04-22T00:00:30.764Z,23.60
2019-04-22T00:01:32.365Z,24.40
2019-04-22T00:02:40.002Z,24.80
2019-04-22T00:03:45.301Z,20.00
2019-04-22T00:04:56.242Z,24.60
2019-04-22T00:06:05.276Z,23.20
2019-04-22T00:07:19.721Z,26.40
2019-04-22T00:08:19.201Z,20.00
2019-04-22T00:09:24.089Z,22.60
2019-04-22T00:10:35.812Z,17.00
2019-04-22T00:11:48.590Z,23.80
2019-04-22T00:12:46.841Z,24.20
2019-04-22T00:14:48.359Z,30.00
2019-04-22T00:15:53.879Z,22.40
2019-04-22T00:16:58.883Z,28.00
2019-04-22T00:18:07.443Z,29.40
2019-04-22T00:19:15.451Z,18.20
2019-04-22T00:20:08.600Z,26.00
2019-04-22T00:21:20.132Z,29.60
2019-04-22T00:22:26.084Z,28.40
2019-04-22T00:23:24.580Z,28.80
2019-04-22T00:24:24.285Z,31.00
2019-04-22T00:25:39.242Z,35.60
2019-04-22T00:26:40.647Z,35.20
2019-04-22T00:28:50.092Z,37.40
2019-04-22T00:30:00.641Z,29.40
2019-04-22T00:31:00.718Z,35.60
2019-04-22T00:31:58.975Z,34.80
2019-04-22T00:33:08.070Z,24.40
2019-04-22T00:34:21.314Z,35.00
2019-04-22T00:35:19.514Z,41.00
2019-04-22T00:36:31.851Z,38.40
2019-04-22T00:37:35.784Z,40.00
2019-04-22T00:38:38.313Z,46.80
2019-04-22T00:39:42.725Z,40.80
2019-04-22T00:40:44.611Z,34.80
2019-04-22T00:41:56.492Z,38.00
2019-04-22T00:42:58.349Z,39.00
2019-04-22T00:44:02.937Z,52.00
2019-04-22T00:45:15.697Z,49.80
2019-04-22T00:46:11.036Z,44.60
2019-04-22T00:47:23.434Z,48.60
2019-04-22T00:48:48.941Z,48.60
2019-04-22T00:50:30.186Z,40.60
2019-04-22T00:51:47.422Z,32.40
2019-04-22T00:52:41.970Z,46.20
2019-04-22T00:53:47.600Z,45.20
2019-04-22T00:54:54.443Z,54.80
2019-04-22T00:57:12.552Z,38.20
2019-04-22T00:58:15.851Z,36.00
2019-04-22T00:59:22.300Z,44.40
2019-04-22T01:00:24.687Z,36.60
2019-04-22T01:01:31.936Z,43.40
2019-04-22T01:02:41.508Z,30.40
2019-04-22T01:03:47.517Z,44.00
2019-04-22T01:04:47.147Z,34.60
2019-04-22T01:05:50.960Z,44.80
2019-04-22T01:06:51.439Z,36.00
2019-04-22T01:07:57.058Z,35.80
2019-04-22T01:09:04.636Z,38.20
2019-04-22T01:10:07.518Z,38.40
2019-04-22T01:11:18.317Z,31.40
2019-04-22T01:12:21.254Z,43.20
2019-04-22T01:13:21.671Z,34.80
2019-04-22T01:14:21.974Z,45.80
2019-04-22T01:15:33.934Z,41.00
2019-04-22T01:16:35.686Z,40.20
2019-04-22T01:17:40.164Z,36.00
2019-04-22T01:18:42.349Z,38.40
2019-04-22T01:20:05.000Z,39.20
2019-04-22T01:21:08.684Z,36.20
2019-04-22T01:22:03.075Z,40.20
2019-04-22T01:23:05.537Z,33.60
2019-04-22T01:24:02.879Z,47.80
2019-04-22T01:25:07.976Z,43.20
2019-04-22T01:26:15.451Z,28.60
2019-04-22T01:27:19.065Z,34.80
2019-04-22T01:28:23.849Z,40.80
2019-04-22T01:29:28.057Z,35.80
2019-04-22T01:30:30.411Z,29.60
2019-04-22T01:31:27.479Z,33.40
2019-04-22T01:32:36.124Z,27.20
2019-04-22T01:33:38.992Z,25.80
2019-04-22T01:34:52.732Z,28.20
2019-04-22T01:36:02.728Z,33.00
2019-04-22T01:37:02.957Z,30.60
2019-04-22T01:38:07.835Z,34.80
2019-04-22T01:39:33.859Z,27.20
2019-04-22T01:40:24.178Z,29.40
2019-04-22T01:41:36.996Z,25.40
2019-04-22T01:42:35.826Z,23.60
2019-04-22T01:43:50.338Z,25.80
2019-04-22T01:44:45.248Z,23.40
2019-04-22T01:45:45.055Z,27.60
2019-04-22T01:46:50.692Z,26.80
2019-04-22T01:48:00.627Z,23.40
2019-04-22T01:49:06.526Z,24.80
2019-04-22T01:50:06.233Z,24.20
2019-04-22T01:51:07.591Z,18.20
2019-04-22T01:53:21.326Z,24.60
2019-04-22T01:54:29.815Z,24.00
2019-04-22T01:55:31.080Z,20.00
2019-04-22T01:56:38.997Z,21.60
2019-04-22T01:57:39.913Z,22.60
2019-04-22T01:58:33.532Z,24.20
2019-04-22T01:59:36.741Z,30.20
2019-04-22T02:00:53.467Z,21.20
2019-04-22T02:02:00.550Z,26.00
2019-04-22T02:03:07.142Z,25.20
2019-04-22T02:04:10.113Z,24.60
2019-04-22T02:05:12.276Z,19.20
2019-04-22T02:06:17.812Z,23.80
2019-04-22T02:07:16.517Z,22.80
2019-04-22T02:08:31.440Z,18.40
2019-04-22T02:09:31.364Z,19.00
2019-04-22T02:11:40.513Z,21.20
2019-04-22T02:12:43.356Z,22.60
2019-04-22T02:13:52.284Z,26.80
2019-04-22T02:15:58.282Z,23.40
2019-04-22T02:17:06.495Z,24.60
2019-04-22T02:18:11.559Z,26.00
2019-04-22T02:19:11.212Z,26.20
2019-04-22T02:20:11.296Z,19.60
2019-04-22T02:21:13.699Z,25.20
2019-04-22T02:22:38.579Z,23.00
2019-04-22T02:23:45.451Z,27.00
2019-04-22T02:24:38.329Z,24.80
2019-04-22T02:25:41.000Z,27.20
2019-04-22T02:26:40.273Z,24.40
2019-04-22T02:27:45.596Z,25.60
2019-04-22T02:29:03.609Z,28.00
2019-04-22T02:32:10.630Z,23.60
2019-04-22T02:33:46.782Z,28.40
2019-04-22T02:34:32.933Z,24.40
2019-04-22T02:35:44.700Z,19.80
2019-04-22T02:37:23.309Z,23.80
2019-04-22T02:39:38.306Z,26.00
2019-04-22T02:40:56.467Z,29.20
2019-04-22T02:41:46.504Z,24.80
2019-04-22T02:42:51.847Z,27.00
2019-04-22T02:43:59.554Z,21.00
2019-04-22T02:44:53.122Z,26.20
2019-04-22T02:48:31.507Z,23.80
2019-04-22T02:49:22.645Z,22.00
2019-04-22T02:51:22.164Z,19.80
2019-04-22T02:52:30.997Z,20.80
2019-04-22T02:54:12.176Z,21.00
2019-04-22T02:59:04.219Z,18.80
2019-04-22T03:01:05.965Z,22.00
2019-04-22T03:02:07.262Z,20.80
2019-04-22T03:03:20.958Z,20.20
2019-04-22T03:04:35.586Z,19.40
2019-04-22T03:05:27.932Z,19.40
2019-04-22T03:06:30.456Z,21.40
2019-04-22T03:07:56.120Z,19.80
2019-04-22T03:08:39.646Z,18.80
2019-04-22T03:09:55.083Z,21.40
2019-04-22T03:11:07.475Z,20.80
2019-04-22T03:11:56.642Z,20.20
2019-04-22T03:12:55.942Z,24.60
2019-04-22T03:15:02.742Z,20.80
2019-04-22T03:17:18.008Z,20.60
2019-04-22T03:18:19.450Z,19.20
2019-04-22T03:19:46.820Z,21.40
2019-04-22T03:20:24.777Z,21.40
2019-04-22T03:21:27.997Z,15.00
2019-04-22T03:22:40.938Z,20.00
2019-04-22T03:23:49.515Z,17.40
2019-04-22T03:26:58.555Z,19.20
2019-04-22T03:28:09.686Z,16.80
2019-04-22T03:28:57.152Z,20.60
2019-04-22T03:31:47.512Z,19.20
2019-04-22T03:32:59.324Z,20.20
2019-04-22T03:33:52.332Z,19.40
2019-04-22T03:35:19.190Z,18.20
2019-04-22T03:35:55.565Z,17.60
2019-04-22T03:37:13.950Z,16.60
2019-04-22T03:37:52.634Z,13.40
2019-04-22T03:40:05.706Z,13.60
2019-04-22T03:41:32.211Z,18.00
2019-04-22T03:43:14.131Z,25.20
2019-04-22T03:45:26.608Z,14.20
2019-04-22T03:46:30.392Z,14.40
2019-04-22T03:47:38.656Z,16.20
2019-04-22T03:48:38.117Z,14.60
2019-04-22T03:50:39.434Z,18.80
2019-04-22T03:51:56.741Z,16.40
2019-04-22T03:52:56.533Z,13.80
2019-04-22T03:54:26.001Z,17.20
2019-04-22T03:55:05.085Z,12.40
2019-04-22T03:56:47.302Z,11.80
2019-04-22T03:59:28.634Z,13.00
2019-04-22T04:00:35.681Z,11.20
2019-04-22T04:01:38.664Z,10.00
2019-04-22T04:02:43.514Z,11.80
2019-04-22T04:03:51.282Z,14.80
2019-04-22T04:04:39.338Z,9.20
2019-04-22T04:07:01.816Z,11.20
2019-04-22T04:09:04.230Z,12.20
2019-04-22T04:10:10.486Z,12.80
2019-04-22T04:10:58.218Z,13.40
2019-04-22T04:12:22.054Z,14.00
2019-04-22T04:13:20.542Z,14.60
2019-04-22T04:15:24.381Z,12.20
2019-04-22T04:16:36.887Z,9.20
2019-04-22T04:17:36.929Z,13.00
2019-04-22T04:18:46.666Z,14.60
2019-04-22T04:19:56.391Z,12.40
2019-04-22T04:21:46.865Z,9.60
2019-04-22T04:23:18.246Z,11.20
2019-04-22T04:27:41.804Z,10.40
2019-04-22T04:29:37.723Z,9.80
2019-04-22T04:31:36.664Z,10.00
2019-04-22T04:32:48.337Z,12.80
2019-04-22T04:33:50.935Z,9.00
2019-04-22T04:35:03.152Z,10.80
2019-04-22T04:37:55.688Z,13.40
2019-04-22T04:40:23.180Z,10.00
2019-04-22T04:41:19.407Z,14.00
2019-04-22T04:43:26.103Z,11.80
2019-04-22T04:44:48.933Z,13.60
2019-04-22T04:45:41.178Z,11.40
2019-04-22T04:46:45.175Z,11.40
2019-04-22T04:47:55.325Z,11.00
2019-04-22T04:48:51.825Z,8.00
2019-04-22T04:49:54.657Z,10.60
2019-04-22T04:52:06.662Z,9.00
2019-04-22T04:54:23.825Z,11.80
2019-04-22T04:55:26.628Z,17.60
2019-04-22T04:56:23.257Z,10.40
2019-04-22T04:57:33.608Z,10.60
2019-04-22T05:04:04.957Z,13.40
2019-04-22T05:05:08.353Z,14.80
2019-04-22T05:06:01.448Z,12.20
2019-04-22T05:07:18.753Z,13.00
2019-04-22T05:08:33.018Z,12.00
2019-04-22T05:09:21.449Z,15.00
2019-04-22T05:11:24.847Z,9.80
2019-04-22T05:12:40.998Z,14.20
2019-04-22T05:13:32.572Z,12.00
2019-04-22T05:14:32.457Z,11.40
2019-04-22T05:15:43.405Z,13.60
2019-04-22T05:16:51.896Z,15.20
2019-04-22T05:17:55.485Z,13.20
2019-04-22T05:19:08.884Z,12.80
2019-04-22T05:19:56.805Z,10.20
2019-04-22T05:21:09.585Z,15.40
2019-04-22T05:22:06.049Z,13.00
2019-04-22T05:23:16.498Z,12.20
2019-04-22T05:24:19.852Z,13.80
2019-04-22T05:25:17.862Z,11.40
2019-04-22T05:26:27.938Z,17.80
2019-04-22T05:28:31.498Z,15.60
2019-04-22T05:29:56.575Z,12.00
2019-04-22T05:30:42.462Z,12.00
2019-04-22T05:31:43.573Z,11.60
2019-04-22T05:33:51.463Z,12.00
2019-04-22T05:34:52.913Z,14.00
2019-04-22T05:36:03.041Z,15.80
2019-04-22T05:37:10.387Z,12.00
2019-04-22T05:38:09.681Z,12.40
2019-04-22T05:39:14.207Z,17.20
2019-04-22T05:40:20.043Z,16.20
2019-04-22T05:41:25.413Z,14.40
2019-04-22T05:42:34.223Z,16.00
2019-04-22T05:43:32.922Z,11.00
2019-04-22T05:44:34.641Z,14.20
2019-04-22T05:45:40.527Z,13.00
2019-04-22T05:46:40.825Z,11.60
2019-04-22T05:47:46.367Z,12.60
2019-04-22T05:48:54.263Z,17.40
2019-04-22T05:49:54.631Z,14.40
2019-04-22T05:51:03.237Z,14.40
2019-04-22T05:52:03.151Z,14.00
2019-04-22T05:53:08.642Z,12.60
2019-04-22T05:54:19.436Z,12.00
2019-04-22T05:55:23.786Z,12.60
2019-04-22T05:57:44.258Z,15.00
2019-04-22T05:58:39.471Z,11.80
2019-04-22T05:59:48.774Z,12.00
2019-04-22T06:01:23.635Z,10.00
2019-04-22T06:02:00.735Z,11.80
2019-04-22T06:04:11.282Z,8.00
2019-04-22T06:05:10.126Z,11.00
2019-04-22T06:06:13.737Z,12.20
2019-04-22T06:07:22.930Z,12.40
2019-04-22T06:08:25.703Z,12.40
2019-04-22T06:09:30.215Z,12.00
2019-04-22T06:10:39.925Z,10.60
2019-04-22T06:11:36.290Z,9.40
2019-04-22T06:12:40.390Z,11.20
2019-04-22T06:13:46.624Z,12.40
2019-04-22T06:15:01.138Z,10.60
2019-04-22T06:16:03.683Z,9.00
2019-04-22T06:17:10.814Z,11.60
2019-04-22T06:19:18.820Z,8.00
2019-04-22T06:20:27.781Z,8.20
2019-04-22T06:21:35.407Z,9.20
2019-04-22T06:23:00.310Z,13.00
2019-04-22T06:23:40.284Z,8.80
2019-04-22T06:24:41.978Z,9.40
2019-04-22T06:26:10.120Z,10.20
2019-04-22T06:28:07.130Z,8.60
2019-04-22T06:29:01.626Z,9.80
2019-04-22T06:30:07.976Z,10.60
2019-04-22T06:31:16.048Z,7.40
2019-04-22T06:33:21.070Z,8.60
2019-04-22T06:34:27.610Z,10.00
2019-04-22T06:36:42.429Z,9.60
2019-04-22T06:37:43.290Z,7.80
2019-04-22T06:39:44.768Z,8.20
2019-04-22T06:40:55.310Z,7.00
2019-04-22T06:41:58.877Z,8.40
2019-04-22T06:43:03.396Z,7.20
2019-04-22T06:44:04.846Z,6.60
2019-04-22T06:45:12.106Z,6.80
2019-04-22T06:46:14.404Z,9.20
2019-04-22T06:47:26.967Z,6.00
2019-04-22T06:48:23.590Z,8.00
2019-04-22T06:49:33.307Z,7.20
2019-04-22T06:50:40.498Z,9.00
2019-04-22T06:51:40.584Z,6.00
2019-04-22T06:52:40.665Z,8.20
2019-04-22T06:53:40.912Z,6.20
2019-04-22T06:54:48.965Z,7.00
2019-04-22T06:55:52.849Z,7.80
2019-04-22T06:58:00.369Z,5.40
2019-04-22T06:59:06.918Z,7.80
2019-04-22T07:00:14.260Z,7.40
2019-04-22T07:01:18.095Z,8.00
2019-04-22T07:02:24.022Z,8.20
2019-04-22T07:03:34.727Z,9.80
2019-04-22T07:04:30.273Z,6.80
2019-04-22T07:05:33.045Z,8.60
2019-04-22T07:06:41.881Z,6.60
2019-04-22T07:07:45.362Z,8.40
2019-04-22T07:10:50.818Z,10.20
2019-04-22T07:12:09.797Z,8.40
2019-04-22T07:13:01.193Z,7.40
2019-04-22T07:15:23.265Z,6.60
2019-04-22T07:18:31.468Z,5.60
2019-04-22T07:19:36.108Z,7.80
2019-04-22T07:20:42.177Z,10.20
2019-04-22T07:21:43.988Z,13.80
2019-04-22T07:24:02.691Z,10.60
2019-04-22T07:24:59.054Z,12.20
2019-04-22T07:26:06.043Z,12.60
2019-04-22T07:27:10.524Z,11.00
2019-04-22T07:29:21.681Z,12.80
2019-04-22T07:30:22.406Z,12.00
2019-04-22T07:31:42.716Z,7.80
2019-04-22T07:32:53.325Z,10.00
2019-04-22T07:34:44.551Z,12.80
2019-04-22T07:37:00.386Z,11.80
2019-04-22T07:37:57.172Z,8.80
2019-04-22T07:39:00.950Z,10.20
2019-04-22T07:40:02.247Z,12.80
2019-04-22T07:41:06.577Z,12.20
2019-04-22T07:42:16.776Z,10.60
2019-04-22T07:45:29.834Z,11.80
2019-04-22T07:46:39.178Z,11.20
2019-04-22T07:47:58.974Z,13.40
2019-04-22T07:49:46.977Z,9.60
2019-04-22T07:51:00.705Z,8.00
2019-04-22T07:51:49.618Z,13.40
2019-04-22T07:52:51.421Z,10.60
2019-04-22T07:54:01.726Z,10.20
2019-04-22T07:55:01.047Z,10.80
2019-04-22T07:56:16.222Z,9.80
2019-04-22T07:57:19.901Z,11.80
2019-04-22T07:59:26.520Z,10.00
2019-04-22T08:00:37.296Z,9.40
2019-04-22T08:02:44.136Z,10.40
2019-04-22T08:04:05.484Z,12.00
2019-04-22T08:04:58.029Z,10.00
2019-04-22T08:06:58.949Z,13.40
2019-04-22T08:08:07.229Z,9.80
2019-04-22T08:09:07.603Z,10.00
2019-04-22T08:10:17.226Z,10.00
2019-04-22T08:11:30.931Z,11.40
2019-04-22T08:12:18.809Z,10.80
2019-04-22T08:13:25.368Z,10.80
2019-04-22T08:14:34.461Z,10.80
2019-04-22T08:15:41.507Z,14.00
2019-04-22T08:16:43.770Z,10.00
2019-04-22T08:17:54.990Z,11.20
2019-04-22T08:18:47.280Z,14.80
2019-04-22T08:19:56.086Z,16.40
2019-04-22T08:20:59.063Z,13.00
2019-04-22T08:22:01.450Z,12.60
2019-04-22T08:23:09.618Z,13.60
2019-04-22T08:24:29.331Z,15.40
2019-04-22T08:25:18.004Z,10.80
2019-04-22T08:26:25.536Z,12.20
2019-04-22T08:27:22.523Z,14.80
2019-04-22T08:29:46.059Z,14.00
2019-04-22T08:30:50.511Z,16.40
2019-04-22T08:31:48.614Z,12.60
2019-04-22T08:32:53.144Z,11.00
2019-04-22T08:33:55.683Z,12.80
2019-04-22T08:35:04.618Z,12.80
2019-04-22T08:36:06.480Z,13.00
2019-04-22T08:38:17.637Z,16.00
2019-04-22T08:39:18.686Z,11.00
2019-04-22T08:40:32.515Z,13.60
2019-04-22T08:42:43.532Z,12.80
2019-04-22T08:43:48.286Z,9.80
2019-04-22T08:45:50.991Z,10.00
2019-04-22T08:46:53.585Z,12.20
2019-04-22T08:47:54.757Z,12.00
2019-04-22T08:49:00.800Z,7.00
2019-04-22T08:50:14.087Z,9.80
2019-04-22T08:51:13.619Z,10.80
2019-04-22T08:52:20.841Z,11.00
2019-04-22T08:53:23.870Z,14.60
2019-04-22T08:54:26.067Z,14.80
2019-04-22T08:55:35.373Z,13.60
2019-04-22T08:56:37.708Z,14.00
2019-04-22T08:58:03.182Z,13.40
2019-04-22T08:58:50.831Z,13.00
2019-04-22T08:59:54.483Z,14.60
2019-04-22T09:01:02.592Z,14.40
2019-04-22T09:02:04.863Z,10.20
2019-04-22T09:03:06.771Z,15.00
2019-04-22T09:04:10.003Z,14.40
2019-04-22T09:05:32.892Z,14.60
2019-04-22T09:06:36.077Z,11.60
2019-04-22T09:07:28.898Z,11.00
2019-04-22T09:08:34.159Z,11.60
2019-04-22T09:09:42.921Z,11.60
2019-04-22T09:10:46.762Z,14.80
2019-04-22T09:11:46.902Z,7.60
2019-04-22T09:13:55.166Z,13.20
2019-04-22T09:14:55.360Z,14.80
2019-04-22T09:16:05.341Z,14.60
2019-04-22T09:17:10.376Z,11.20
2019-04-22T09:18:14.529Z,12.20
2019-04-22T09:19:19.743Z,16.00
2019-04-22T09:20:24.676Z,12.20
2019-04-22T09:22:26.324Z,11.80
2019-04-22T09:23:38.740Z,14.20
2019-04-22T09:24:41.834Z,15.40
2019-04-22T09:25:51.109Z,14.40
2019-04-22T09:26:48.747Z,22.60
2019-04-22T09:28:08.717Z,17.00
2019-04-22T09:29:34.119Z,13.20
2019-04-22T09:30:04.965Z,17.80
2019-04-22T09:31:11.625Z,13.80
2019-04-22T09:33:20.940Z,16.00
2019-04-22T09:34:23.035Z,14.80
2019-04-22T09:35:31.874Z,16.20
2019-04-22T09:36:33.890Z,12.80
2019-04-22T09:37:38.986Z,17.40
2019-04-22T09:39:57.434Z,17.60
2019-04-22T09:41:05.444Z,17.80
2019-04-22T09:41:52.541Z,16.40
2019-04-22T09:42:56.391Z,19.60
2019-04-22T09:45:05.715Z,20.40
2019-04-22T09:46:09.040Z,14.80
2019-04-22T09:47:19.216Z,17.80
2019-04-22T09:48:26.716Z,18.00
2019-04-22T09:49:28.496Z,16.20
2019-04-22T09:50:40.485Z,17.40
2019-04-22T09:51:37.496Z,22.00
2019-04-22T09:52:42.137Z,15.60
2019-04-22T09:53:57.610Z,21.00
2019-04-22T09:55:56.781Z,16.80
2019-04-22T09:56:58.589Z,16.60
2019-04-22T09:58:02.835Z,16.00
2019-04-22T09:59:07.507Z,16.80
2019-04-22T10:02:24.996Z,16.20
2019-04-22T10:03:26.016Z,13.40
2019-04-22T10:04:36.447Z,15.80
2019-04-22T10:05:48.064Z,14.60
2019-04-22T10:06:36.685Z,15.60
2019-04-22T10:07:44.887Z,17.40
2019-04-22T10:09:01.752Z,16.40
2019-04-22T10:11:04.547Z,18.00
2019-04-22T10:12:02.755Z,15.60
2019-04-22T10:13:12.916Z,16.80
2019-04-22T10:14:12.541Z,21.20
2019-04-22T10:15:14.981Z,15.60
2019-04-22T10:16:27.474Z,19.40
2019-04-22T10:17:26.126Z,19.40
2019-04-22T10:18:34.051Z,19.00
2019-04-22T10:19:37.243Z,20.40
2019-04-22T10:20:42.929Z,17.40
2019-04-22T10:23:55.085Z,20.80
2019-04-22T10:24:57.075Z,26.60
2019-04-22T10:26:04.615Z,20.40
2019-04-22T10:27:01.591Z,21.00
2019-04-22T10:30:22.006Z,19.80
2019-04-22T10:31:23.872Z,15.20
2019-04-22T10:32:27.122Z,18.40
2019-04-22T10:33:25.760Z,18.80
2019-04-22T10:34:22.997Z,22.40
2019-04-22T10:35:19.866Z,20.60
2019-04-22T10:36:21.456Z,19.20
2019-04-22T10:37:25.613Z,20.20
2019-04-22T10:38:28.715Z,21.20
2019-04-22T10:39:42.052Z,16.40
2019-04-22T10:40:38.748Z,18.00
2019-04-22T10:41:41.211Z,19.00
2019-04-22T10:42:45.175Z,19.00
2019-04-22T10:43:47.988Z,15.60
2019-04-22T10:44:51.892Z,18.20
2019-04-22T10:45:54.628Z,14.40
2019-04-22T10:46:58.037Z,17.60
2019-04-22T10:48:01.679Z,17.80
2019-04-22T10:49:04.234Z,19.40
2019-04-22T10:50:10.289Z,16.80
2019-04-22T10:51:14.786Z,15.60
2019-04-22T10:52:18.209Z,19.40
2019-04-22T10:53:21.680Z,18.00
2019-04-22T10:54:25.370Z,19.60
2019-04-22T10:55:27.552Z,19.20
2019-04-22T10:56:30.637Z,17.40
2019-04-22T10:57:33.923Z,18.60
2019-04-22T10:58:36.077Z,18.60
2019-04-22T10:59:38.748Z,18.60
2019-04-22T11:00:42.365Z,19.40
2019-04-22T11:01:44.560Z,13.20
2019-04-22T11:02:47.830Z,15.00
2019-04-22T11:03:51.042Z,15.60
2019-04-22T11:04:54.496Z,13.40
2019-04-22T11:05:57.232Z,16.80
2019-04-22T11:07:05.464Z,17.00
2019-04-22T11:08:08.054Z,18.80
2019-04-22T11:09:10.607Z,16.20
2019-04-22T11:10:31.502Z,14.80
2019-04-22T11:11:30.084Z,11.80
2019-04-22T11:12:26.538Z,12.40
2019-04-22T11:13:28.257Z,14.20
2019-04-22T11:14:30.824Z,17.40
2019-04-22T11:15:34.841Z,16.00
2019-04-22T11:16:39.385Z,16.00
2019-04-22T11:17:43.770Z,17.40
2019-04-22T11:18:47.449Z,25.40
2019-04-22T11:19:50.273Z,44.40
2019-04-22T11:20:53.581Z,45.40
2019-04-22T11:22:03.787Z,52.20
2019-04-22T11:23:00.676Z,49.80
2019-04-22T11:24:05.127Z,57.80
2019-04-22T11:25:09.815Z,53.80
2019-04-22T11:26:12.448Z,64.40
2019-04-22T11:27:16.826Z,55.60
2019-04-22T11:28:20.622Z,51.00
2019-04-22T11:29:23.807Z,45.20
2019-04-22T11:30:28.075Z,31.80
2019-04-22T11:31:32.340Z,32.00
2019-04-22T11:32:38.261Z,23.20
2019-04-22T11:33:42.677Z,37.20
2019-04-22T11:34:46.737Z,26.00
2019-04-22T11:35:50.129Z,29.00
2019-04-22T11:36:52.697Z,27.60
2019-04-22T11:37:56.766Z,25.00
2019-04-22T11:39:02.377Z,25.20
2019-04-22T11:40:16.550Z,26.20
2019-04-22T11:41:12.642Z,24.00
2019-04-22T11:42:16.323Z,27.40
2019-04-22T11:43:20.081Z,25.00
2019-04-22T11:44:25.399Z,29.60
2019-04-22T11:45:29.116Z,26.40
2019-04-22T11:46:31.548Z,23.60
2019-04-22T11:47:35.378Z,24.40
2019-04-22T11:48:38.128Z,22.80
2019-04-22T11:49:41.714Z,21.60
2019-04-22T11:50:44.282Z,22.80
2019-04-22T11:51:47.921Z,21.20
2019-04-22T11:52:51.045Z,22.60
2019-04-22T11:53:54.780Z,28.20
2019-04-22T11:54:57.026Z,26.80
2019-04-22T11:56:00.486Z,21.60
2019-04-22T11:57:05.492Z,20.00
2019-04-22T11:58:18.978Z,24.60
2019-04-22T11:59:22.638Z,22.60
2019-04-22T12:00:27.925Z,19.40
2019-04-22T12:01:30.845Z,22.00
2019-04-22T12:02:33.416Z,18.60
2019-04-22T12:03:36.072Z,17.40
2019-04-22T12:04:40.046Z,21.60
2019-04-22T12:05:43.949Z,21.20
2019-04-22T12:06:46.271Z,20.40
2019-04-22T12:07:49.026Z,25.00
2019-04-22T12:08:51.997Z,20.40
2019-04-22T12:09:55.599Z,23.80
2019-04-22T12:11:01.904Z,21.40
2019-04-22T12:12:05.738Z,20.20
2019-04-22T12:13:08.344Z,18.40
2019-04-22T12:14:11.804Z,19.20
2019-04-22T12:15:15.286Z,21.60
2019-04-22T12:16:19.060Z,18.60
2019-04-22T12:17:22.345Z,16.80
2019-04-22T12:18:25.329Z,15.60
2019-04-22T12:19:29.406Z,16.40
2019-04-22T12:20:32.982Z,17.20
2019-04-22T12:21:37.042Z,20.40
2019-04-22T12:22:41.058Z,19.60
2019-04-22T12:23:44.942Z,16.00
2019-04-22T12:24:48.143Z,14.60
2019-04-22T12:25:58.030Z,14.80
2019-04-22T12:26:56.458Z,19.60
2019-04-22T12:27:59.271Z,16.60
2019-04-22T12:29:02.802Z,19.20
2019-04-22T12:30:09.286Z,18.40
2019-04-22T12:31:13.558Z,18.60
2019-04-22T12:32:16.049Z,16.20
2019-04-22T12:33:19.192Z,17.00
2019-04-22T12:34:23.758Z,14.80
2019-04-22T12:35:26.369Z,16.80
2019-04-22T12:36:30.591Z,20.60
2019-04-22T12:37:42.902Z,16.80
2019-04-22T12:38:37.777Z,19.80
2019-04-22T12:39:41.221Z,20.40
2019-04-22T12:40:51.312Z,16.60
2019-04-22T12:41:48.074Z,14.40
2019-04-22T12:42:51.342Z,21.60
2019-04-22T12:43:53.754Z,20.80
2019-04-22T12:44:58.271Z,18.20
2019-04-22T12:46:02.431Z,16.20
2019-04-22T12:47:07.953Z,17.80
2019-04-22T12:48:10.707Z,20.40
2019-04-22T12:49:14.164Z,21.40
2019-04-22T12:50:25.570Z,19.60
2019-04-22T12:51:23.126Z,19.00
2019-04-22T12:52:34.035Z,20.80
2019-04-22T12:53:31.519Z,18.60
2019-04-22T12:54:35.050Z,18.00
2019-04-22T12:55:39.661Z,24.20
2019-04-22T12:56:43.975Z,18.20
2019-04-22T12:57:46.525Z,18.40
2019-04-22T12:58:49.892Z,21.40
2019-04-22T12:59:53.398Z,20.80
2019-04-22T13:00:55.297Z,17.40
2019-04-22T13:02:00.684Z,19.40
2019-04-22T13:03:05.224Z,20.80
2019-04-22T13:04:11.766Z,22.60
2019-04-22T13:05:14.302Z,25.00
2019-04-22T13:06:17.549Z,19.00
2019-04-22T13:07:20.090Z,19.20
2019-04-22T13:08:23.448Z,18.20
2019-04-22T13:09:27.487Z,17.40
2019-04-22T13:10:40.635Z,15.40
2019-04-22T13:11:36.965Z,18.40
2019-04-22T13:12:40.663Z,20.00
2019-04-22T13:13:45.145Z,27.80
2019-04-22T13:14:48.879Z,21.80
2019-04-22T13:15:51.118Z,19.40
2019-04-22T13:16:55.129Z,23.20
2019-04-22T13:18:07.194Z,21.60
2019-04-22T13:19:09.082Z,24.00
2019-04-22T13:20:09.807Z,21.80
2019-04-22T13:21:13.120Z,21.60
2019-04-22T13:22:16.941Z,26.80
2019-04-22T13:23:19.996Z,23.40
2019-04-22T13:24:23.640Z,24.20
2019-04-22T13:25:28.428Z,24.40
2019-04-22T13:26:31.844Z,26.00
2019-04-22T13:27:35.139Z,21.00
2019-04-22T13:28:39.021Z,20.60
2019-04-22T13:29:43.382Z,21.80
2019-04-22T13:30:46.501Z,25.60
2019-04-22T13:31:50.917Z,24.80
2019-04-22T13:32:54.589Z,29.60
2019-04-22T13:33:59.742Z,27.40
2019-04-22T13:35:02.144Z,25.20
2019-04-22T13:36:08.022Z,27.20
2019-04-22T13:37:10.791Z,26.40
2019-04-22T13:38:13.026Z,22.40
2019-04-22T13:39:16.716Z,30.00
2019-04-22T13:40:21.077Z,29.00
2019-04-22T13:41:31.700Z,27.80
2019-04-22T13:42:29.542Z,23.60
2019-04-22T13:43:31.819Z,25.60
2019-04-22T13:44:35.577Z,25.80
2019-04-22T13:45:38.611Z,31.00
2019-04-22T13:47:02.927Z,27.00
2019-04-22T13:48:06.338Z,31.80
2019-04-22T13:49:21.280Z,25.20
2019-04-22T13:51:33.939Z,38.40
2019-04-22T13:53:48.127Z,25.80
2019-04-22T13:55:44.970Z,33.80
2019-04-22T13:56:43.924Z,37.60
2019-04-22T13:57:47.529Z,32.40
2019-04-22T13:58:51.482Z,32.40
2019-04-22T13:59:43.077Z,38.00
2019-04-22T14:00:42.575Z,34.00
2019-04-22T14:01:50.682Z,26.20
2019-04-22T14:03:12.855Z,25.00
2019-04-22T14:04:18.527Z,36.80
2019-04-22T14:05:24.463Z,31.20
2019-04-22T14:06:27.049Z,27.00
2019-04-22T14:07:30.743Z,25.20
2019-04-22T14:08:33.345Z,36.40
2019-04-22T14:09:35.943Z,36.00
2019-04-22T14:10:38.809Z,25.20
2019-04-22T14:11:49.726Z,24.60
2019-04-22T14:12:46.696Z,24.40
2019-04-22T14:13:50.249Z,24.00
2019-04-22T14:14:56.010Z,23.20
2019-04-22T14:16:01.243Z,26.80
2019-04-22T14:17:04.983Z,20.00
2019-04-22T14:18:07.568Z,27.80
2019-04-22T14:19:11.807Z,26.40
2019-04-22T14:20:16.058Z,28.40
2019-04-22T14:21:18.893Z,29.20
2019-04-22T14:22:22.281Z,24.00
2019-04-22T14:23:24.743Z,30.20
2019-04-22T14:24:27.918Z,34.00
2019-04-22T14:25:30.807Z,29.60
2019-04-22T14:26:44.285Z,38.80
2019-04-22T14:27:48.609Z,32.60
2019-04-22T14:28:44.100Z,36.20
2019-04-22T14:29:47.261Z,31.20
2019-04-22T14:30:50.498Z,30.80
2019-04-22T14:32:05.490Z,28.20
2019-04-22T14:33:00.382Z,26.40
2019-04-22T14:34:05.245Z,26.00
2019-04-22T14:35:09.212Z,27.00
2019-04-22T14:36:12.240Z,27.40
2019-04-22T14:37:16.328Z,29.60
2019-04-22T14:38:21.887Z,26.40
2019-04-22T14:39:24.414Z,29.20
2019-04-22T14:40:28.698Z,34.20
2019-04-22T14:41:49.009Z,36.20
2019-04-22T14:43:02.922Z,29.60
2019-04-22T14:45:05.374Z,27.20
2019-04-22T14:45:22.027Z,33.80
2019-04-22T14:47:20.095Z,34.20
2019-04-22T14:48:40.467Z,38.20
2019-04-22T14:49:31.899Z,30.00
2019-04-22T14:50:35.499Z,28.00
2019-04-22T14:51:39.645Z,29.00
2019-04-22T14:52:45.913Z,27.60
2019-04-22T14:53:44.568Z,35.60
2019-04-22T14:54:45.893Z,28.00
2019-04-22T14:55:39.997Z,32.20
2019-04-22T14:56:44.662Z,25.40
2019-04-22T14:57:49.013Z,32.60
2019-04-22T14:58:51.497Z,32.40
2019-04-22T14:59:55.791Z,31.80
2019-04-22T15:00:59.178Z,29.00
2019-04-22T15:02:03.409Z,30.60
2019-04-22T15:03:07.996Z,28.20
2019-04-22T15:04:11.208Z,29.80
2019-04-22T15:05:14.481Z,32.00
2019-04-22T15:06:16.193Z,31.20
2019-04-22T15:07:19.183Z,26.40
2019-04-22T15:08:22.960Z,35.60
2019-04-22T15:09:26.098Z,32.40
2019-04-22T15:10:28.566Z,32.60
2019-04-22T15:11:43.702Z,32.40
2019-04-22T15:12:43.710Z,31.80
2019-04-22T15:13:41.240Z,30.00
2019-04-22T15:14:44.034Z,25.80
2019-04-22T15:15:54.921Z,30.60
2019-04-22T15:16:57.649Z,24.60
2019-04-22T15:18:08.066Z,30.00
2019-04-22T15:19:17.946Z,30.40
2019-04-22T15:20:31.938Z,28.20
2019-04-22T15:21:34.564Z,29.40
2019-04-22T15:22:38.893Z,33.60
2019-04-22T15:23:42.587Z,31.80
2019-04-22T15:24:46.868Z,26.20
2019-04-22T15:25:50.744Z,26.60
2019-04-22T15:26:56.315Z,31.00
2019-04-22T15:27:59.457Z,29.80
2019-04-22T15:29:03.432Z,29.60
2019-04-22T15:30:07.630Z,34.60
2019-04-22T15:31:11.147Z,37.00
2019-04-22T15:32:13.699Z,28.40
2019-04-22T15:33:17.270Z,28.80
2019-04-22T15:34:20.732Z,35.40
2019-04-22T15:35:23.272Z,25.40
2019-04-22T15:36:26.342Z,29.80